createdAt,value
2023-02-12T00:01:25.934Z,58.58
2023-02-12T00:03:53.546Z,61.00
2023-02-12T00:06:21.137Z,58.70
2023-02-12T00:08:52.096Z,55.22
2023-02-12T00:11:27.511Z,60.42
2023-02-12T00:13:55.837Z,60.03
2023-02-12T00:16:27.677Z,57.60
2023-02-12T00:18:58.465Z,63.70
2023-02-12T00:21:25.971Z,56.10
2023-02-12T00:23:53.562Z,55.70
2023-02-12T00:26:22.997Z,60.30
2023-02-12T00:28:51.833Z,61.90
2023-02-12T00:31:27.690Z,62.28
2023-02-12T00:33:57.051Z,61.50
2023-02-12T00:36:27.686Z,58.83
2023-02-12T00:38:56.351Z,62.95
2023-02-12T00:41:25.955Z,64.32
2023-02-12T00:43:53.921Z,64.75
2023-02-12T00:46:21.924Z,66.38
2023-02-12T00:48:49.231Z,65.18
2023-02-12T00:51:19.081Z,61.25
2023-02-12T00:53:46.687Z,60.80
2023-02-12T00:56:15.484Z,70.43
2023-02-12T00:58:42.581Z,64.30
2023-02-12T01:01:09.842Z,65.82
2023-02-12T01:03:38.829Z,61.58
2023-02-12T01:06:06.688Z,64.55
2023-02-12T01:08:34.059Z,65.43
2023-02-12T01:11:04.428Z,65.15
2023-02-12T01:13:33.787Z,60.97
2023-02-12T01:16:15.966Z,66.32
2023-02-12T01:18:43.822Z,60.72
2023-02-12T01:21:21.021Z,62.63
2023-02-12T01:23:49.546Z,59.70
2023-02-12T01:26:19.461Z,58.80
2023-02-12T01:28:53.359Z,65.90
2023-02-12T01:31:25.890Z,63.40
2023-02-12T01:33:56.776Z,61.58
2023-02-12T01:36:25.271Z,61.58
2023-02-12T01:38:53.497Z,62.55
2023-02-12T01:41:25.354Z,59.67
2023-02-12T01:44:28.738Z,60.85
2023-02-12T01:47:02.775Z,64.82
2023-02-12T01:49:46.170Z,65.20
2023-02-12T01:52:20.675Z,68.53
2023-02-12T01:54:51.755Z,69.55
2023-02-12T01:57:20.018Z,70.88
2023-02-12T01:59:53.065Z,67.78
2023-02-12T02:02:20.714Z,66.35
2023-02-12T02:04:57.456Z,65.15
2023-02-12T02:07:24.501Z,72.10
2023-02-12T02:09:52.951Z,72.78
2023-02-12T02:12:38.897Z,71.00
2023-02-12T02:15:06.849Z,69.10
2023-02-12T02:18:15.096Z,67.30
2023-02-12T02:21:06.628Z,70.65
2023-02-12T02:23:39.142Z,65.07
2023-02-12T02:26:59.058Z,67.65
2023-02-12T02:29:46.784Z,64.05
2023-02-12T02:32:32.617Z,69.15
2023-02-12T02:35:08.502Z,71.35
2023-02-12T02:37:48.999Z,66.63
2023-02-12T02:40:31.524Z,66.88
2023-02-12T02:43:10.884Z,64.75
2023-02-12T02:45:47.342Z,68.60
2023-02-12T02:48:50.387Z,66.00
2023-02-12T02:51:32.126Z,68.55
2023-02-12T02:54:04.089Z,62.42
2023-02-12T02:56:37.194Z,64.82
2023-02-12T02:59:11.424Z,67.97
2023-02-12T03:01:53.000Z,67.38
2023-02-12T03:04:32.805Z,71.47
2023-02-12T03:07:11.451Z,72.78
2023-02-12T03:09:43.861Z,74.78
2023-02-12T03:12:38.229Z,71.95
2023-02-12T03:15:17.652Z,68.90
2023-02-12T03:17:50.590Z,76.53
2023-02-12T03:20:49.830Z,72.68
2023-02-12T03:23:35.878Z,66.30
2023-02-12T03:26:21.520Z,62.67
2023-02-12T03:31:35.354Z,71.90
2023-02-12T03:34:35.008Z,61.22
2023-02-12T03:37:11.977Z,70.13
2023-02-12T03:40:17.308Z,65.20
2023-02-12T03:43:21.186Z,67.63
2023-02-12T03:45:59.839Z,71.38
2023-02-12T03:48:59.067Z,65.03
2023-02-12T03:51:35.505Z,68.82
2023-02-12T03:54:05.036Z,65.10
2023-02-12T03:56:59.729Z,69.78
2023-02-12T03:59:27.374Z,74.28
2023-02-12T04:01:58.248Z,67.47
2023-02-12T04:04:27.038Z,64.45
2023-02-12T04:06:55.301Z,74.18
2023-02-12T04:09:25.260Z,65.47
2023-02-12T04:12:10.188Z,74.72
2023-02-12T04:15:02.604Z,70.85
2023-02-12T04:17:50.092Z,71.82
2023-02-12T04:20:44.424Z,72.15
2023-02-12T04:23:23.299Z,66.80
2023-02-12T04:26:17.375Z,81.22
2023-02-12T04:29:07.584Z,75.03
2023-02-12T04:31:58.209Z,70.80
2023-02-12T04:34:37.326Z,79.20
2023-02-12T04:37:44.280Z,76.72
2023-02-12T04:40:19.383Z,69.97
2023-02-12T04:42:50.650Z,80.05
2023-02-12T04:45:28.446Z,81.25
2023-02-12T04:47:55.837Z,66.55
2023-02-12T04:50:23.638Z,68.85
2023-02-12T04:52:50.611Z,76.93
2023-02-12T04:55:17.774Z,68.85
2023-02-12T04:57:44.720Z,79.18
2023-02-12T05:00:15.965Z,72.05
2023-02-12T05:02:42.896Z,76.03
2023-02-12T05:05:09.954Z,74.90
2023-02-12T05:07:36.996Z,81.18
2023-02-12T05:10:04.333Z,75.05
2023-02-12T05:12:31.311Z,85.65
2023-02-12T05:14:58.644Z,73.50
2023-02-12T05:17:25.633Z,70.63
2023-02-12T05:19:52.824Z,82.00
2023-02-12T05:22:19.853Z,83.82
2023-02-12T05:24:46.936Z,73.10
2023-02-12T05:27:13.953Z,75.85
2023-02-12T05:29:41.090Z,82.68
2023-02-12T05:32:08.475Z,79.45
2023-02-12T05:34:36.502Z,83.25
2023-02-12T05:37:03.875Z,73.60
2023-02-12T05:39:31.095Z,75.97
2023-02-12T05:41:57.966Z,79.68
2023-02-12T05:44:24.859Z,89.43
2023-02-12T05:46:51.866Z,81.38
2023-02-12T05:49:18.895Z,81.65
2023-02-12T05:51:45.942Z,80.50
2023-02-12T05:54:12.873Z,85.47
2023-02-12T05:56:47.320Z,79.68
2023-02-12T05:59:23.795Z,73.40
2023-02-12T06:01:52.270Z,75.82
2023-02-12T06:04:25.018Z,76.18
2023-02-12T06:06:53.925Z,77.38
2023-02-12T06:09:21.129Z,87.22
2023-02-12T06:11:48.802Z,88.10
2023-02-12T06:14:19.728Z,72.70
2023-02-12T06:16:57.742Z,81.72
2023-02-12T06:19:25.012Z,81.28
2023-02-12T06:21:51.931Z,85.45
2023-02-12T06:24:18.894Z,74.78
2023-02-12T06:26:50.801Z,68.70
2023-02-12T06:29:19.506Z,74.78
2023-02-12T06:31:46.902Z,79.47
2023-02-12T06:34:17.977Z,68.22
2023-02-12T06:36:47.836Z,77.20
2023-02-12T06:39:17.540Z,76.82
2023-02-12T06:41:45.034Z,69.53
2023-02-12T06:44:13.540Z,70.45
2023-02-12T06:46:41.018Z,73.15
2023-02-12T06:49:11.121Z,67.30
2023-02-12T06:51:40.294Z,62.50
2023-02-12T06:54:14.358Z,63.83
2023-02-12T06:56:41.297Z,66.45
2023-02-12T06:59:14.214Z,53.70
2023-02-12T07:01:41.615Z,65.32
2023-02-12T07:04:08.755Z,56.17
2023-02-12T07:06:36.885Z,58.55
2023-02-12T07:09:05.674Z,59.25
2023-02-12T07:11:38.078Z,63.15
2023-02-12T07:14:06.601Z,57.10
2023-02-12T07:16:33.713Z,62.42
2023-02-12T07:19:00.758Z,63.65
2023-02-12T07:21:27.680Z,62.85
2023-02-12T07:23:55.365Z,61.75
2023-02-12T07:26:23.006Z,58.15
2023-02-12T07:28:51.215Z,57.78
2023-02-12T07:31:23.657Z,58.17
2023-02-12T07:33:55.906Z,50.75
2023-02-12T07:36:24.593Z,59.05
2023-02-12T07:38:52.271Z,56.67
2023-02-12T07:41:23.058Z,52.92
2023-02-12T07:43:56.247Z,58.50
2023-02-12T07:46:34.074Z,55.55
2023-02-12T07:49:05.402Z,52.20
2023-02-12T07:51:35.091Z,48.83
2023-02-12T07:54:03.107Z,57.40
2023-02-12T07:56:36.662Z,54.53
2023-02-12T07:59:08.703Z,53.60
2023-02-12T08:01:43.799Z,53.03
2023-02-12T08:04:14.472Z,50.45
2023-02-12T08:06:45.733Z,54.33
2023-02-12T08:09:18.762Z,44.58
2023-02-12T08:11:46.657Z,47.90
2023-02-12T08:14:17.440Z,51.78
2023-02-12T08:16:47.173Z,48.90
2023-02-12T08:19:19.759Z,46.95
2023-02-12T08:21:53.756Z,51.25
2023-02-12T08:24:24.461Z,47.15
2023-02-12T08:26:54.979Z,49.20
2023-02-12T08:29:31.667Z,52.42
2023-02-12T08:32:02.210Z,45.83
2023-02-12T08:34:33.920Z,50.65
2023-02-12T08:37:01.853Z,48.58
2023-02-12T08:39:30.096Z,44.65
2023-02-12T08:41:59.672Z,45.25
2023-02-12T08:44:26.764Z,45.35
2023-02-12T08:46:55.839Z,45.60
2023-02-12T08:49:29.871Z,42.17
2023-02-12T08:51:59.081Z,44.17
2023-02-12T08:54:29.319Z,47.05
2023-02-12T08:56:59.578Z,42.92
2023-02-12T08:59:26.701Z,48.55
2023-02-12T09:01:54.973Z,49.70
2023-02-12T09:04:26.299Z,43.95
2023-02-12T09:06:53.951Z,47.38
2023-02-12T09:09:21.822Z,46.63
2023-02-12T09:11:55.097Z,49.67
2023-02-12T09:14:24.073Z,45.53
2023-02-12T09:16:53.028Z,44.58
2023-02-12T09:19:20.992Z,43.28
2023-02-12T09:21:56.633Z,41.80
2023-02-12T09:24:27.368Z,39.85
2023-02-12T09:26:57.203Z,38.83
2023-02-12T09:33:43.440Z,34.83
2023-02-12T09:36:14.603Z,32.13
2023-02-12T09:38:41.823Z,33.28
2023-02-12T09:41:23.734Z,28.38
2023-02-12T09:44:00.582Z,34.42
2023-02-12T09:46:45.579Z,28.25
2023-02-12T09:49:53.453Z,33.45
2023-02-12T09:52:26.776Z,33.58
2023-02-12T09:54:54.910Z,33.75
2023-02-12T09:57:34.565Z,27.55
2023-02-12T10:00:09.421Z,27.00
2023-02-12T10:02:39.648Z,32.40
2023-02-12T10:05:23.650Z,26.33
2023-02-12T10:08:08.402Z,30.20
2023-02-12T10:10:44.281Z,28.17
2023-02-12T10:13:36.204Z,27.33
2023-02-12T10:16:18.269Z,28.80
2023-02-12T10:18:58.128Z,29.85
2023-02-12T10:21:43.910Z,26.05
2023-02-12T10:24:49.173Z,24.33
2023-02-12T10:27:24.680Z,24.95
2023-02-12T10:29:52.856Z,25.05
2023-02-12T10:32:30.828Z,27.27
2023-02-12T10:34:59.713Z,28.90
2023-02-12T10:37:50.445Z,26.05
2023-02-12T10:40:39.038Z,28.83
2023-02-12T10:43:06.047Z,27.60
2023-02-12T10:45:39.912Z,25.10
2023-02-12T10:48:22.425Z,24.45
2023-02-12T10:51:08.272Z,25.60
2023-02-12T10:53:55.140Z,26.33
2023-02-12T10:56:24.874Z,27.65
2023-02-12T10:59:00.349Z,20.77
2023-02-12T11:01:33.680Z,22.10
2023-02-12T11:04:21.304Z,18.50
2023-02-12T11:07:03.480Z,24.65
2023-02-12T11:09:45.265Z,22.65
2023-02-12T11:12:30.673Z,23.73
2023-02-12T11:15:12.750Z,20.73
2023-02-12T11:17:45.078Z,22.10
2023-02-12T11:20:18.170Z,17.88
2023-02-12T11:22:52.545Z,18.60
2023-02-12T11:25:21.145Z,22.55
2023-02-12T11:28:15.633Z,17.95
2023-02-12T11:31:25.494Z,19.95
2023-02-12T11:34:14.793Z,17.02
2023-02-12T11:36:50.015Z,19.20
2023-02-12T11:39:35.849Z,19.73
2023-02-12T11:42:17.266Z,19.35
2023-02-12T11:44:57.394Z,15.30
2023-02-12T11:47:36.209Z,22.27
2023-02-12T11:50:22.386Z,19.77
2023-02-12T11:52:53.608Z,17.00
2023-02-12T11:55:35.082Z,18.05
2023-02-12T11:58:13.152Z,16.15
2023-02-12T12:01:02.852Z,22.45
2023-02-12T12:04:03.223Z,13.63
2023-02-12T12:06:37.770Z,19.15
2023-02-12T12:09:22.910Z,20.13
2023-02-12T12:12:08.958Z,19.40
2023-02-12T12:15:18.947Z,22.40
2023-02-12T12:18:19.504Z,17.05
2023-02-12T12:21:00.949Z,21.35
2023-02-12T12:24:38.016Z,16.60
2023-02-12T12:27:45.918Z,14.35
2023-02-12T12:30:51.826Z,15.18
2023-02-12T12:33:51.491Z,15.45
2023-02-12T12:37:20.068Z,11.80
2023-02-12T12:40:19.971Z,14.15
2023-02-12T12:43:04.077Z,15.57
2023-02-12T12:46:38.987Z,16.38
2023-02-12T12:49:46.448Z,13.95
2023-02-12T12:52:46.142Z,15.30
2023-02-12T12:56:05.436Z,14.57
2023-02-12T12:58:55.343Z,12.27
2023-02-12T13:02:02.984Z,13.65
2023-02-12T13:05:07.385Z,12.88
2023-02-12T13:08:05.322Z,17.27
2023-02-12T13:10:44.150Z,16.50
2023-02-12T13:13:34.889Z,24.83
2023-02-12T13:16:33.765Z,14.80
2023-02-12T13:19:21.537Z,20.95
2023-02-12T13:21:57.436Z,17.40
2023-02-12T13:24:43.692Z,21.63
2023-02-12T13:27:16.616Z,15.40
2023-02-12T13:29:52.540Z,18.10
2023-02-12T13:32:43.394Z,17.70
2023-02-12T13:35:20.824Z,15.48
2023-02-12T13:37:54.485Z,19.85
2023-02-12T13:40:25.385Z,21.80
2023-02-12T13:43:04.413Z,20.95
2023-02-12T13:45:34.495Z,20.25
2023-02-12T13:48:19.905Z,25.50
2023-02-12T13:51:41.694Z,29.10
2023-02-12T13:54:47.089Z,23.48
2023-02-12T13:57:17.984Z,23.05
2023-02-12T13:59:58.111Z,16.10
2023-02-12T14:02:34.455Z,18.23
2023-02-12T14:05:30.802Z,19.15
2023-02-12T14:08:05.770Z,19.20
2023-02-12T14:10:41.752Z,15.35
2023-02-12T14:13:16.433Z,20.50
2023-02-12T14:15:52.388Z,15.00
2023-02-12T14:18:26.714Z,14.23
2023-02-12T14:21:12.192Z,12.77
2023-02-12T14:26:23.997Z,17.20
2023-02-12T14:29:06.372Z,13.35
2023-02-12T14:31:39.520Z,12.25
2023-02-12T14:34:06.529Z,13.40
2023-02-12T14:36:33.478Z,11.68
2023-02-12T14:39:19.591Z,12.50
2023-02-12T14:42:16.020Z,10.10
2023-02-12T14:44:57.935Z,10.30
2023-02-12T14:47:31.395Z,11.75
2023-02-12T14:50:12.263Z,13.90
2023-02-12T14:52:48.935Z,13.63
2023-02-12T14:55:30.246Z,12.10
2023-02-12T14:58:01.877Z,9.75
2023-02-12T15:00:38.845Z,10.60
2023-02-12T15:03:18.029Z,12.40
2023-02-12T15:06:13.578Z,11.52
2023-02-12T15:08:46.987Z,10.70
2023-02-12T15:11:16.572Z,11.35
2023-02-12T15:13:57.134Z,13.85
2023-02-12T15:17:17.354Z,12.32
2023-02-12T15:20:08.110Z,14.93
2023-02-12T15:22:41.219Z,14.15
2023-02-12T15:25:38.244Z,16.98
2023-02-12T15:37:06.304Z,13.93
2023-02-12T15:39:48.244Z,12.10
2023-02-12T15:42:32.765Z,14.82
2023-02-12T15:45:16.651Z,13.60
2023-02-12T15:47:54.478Z,17.00
2023-02-12T15:50:22.628Z,13.38
2023-02-12T15:52:52.216Z,10.45
2023-02-12T15:55:25.226Z,13.23
2023-02-12T15:57:59.963Z,14.65
2023-02-12T16:00:41.602Z,17.88
2023-02-12T16:03:27.738Z,13.32
2023-02-12T16:06:02.259Z,13.93
2023-02-12T16:08:32.914Z,17.63
2023-02-12T16:11:13.811Z,17.15
2023-02-12T16:13:50.708Z,14.55
2023-02-12T16:16:22.792Z,15.00
2023-02-12T16:19:29.891Z,15.15
2023-02-12T16:22:11.109Z,17.80
2023-02-12T16:24:48.865Z,17.10
2023-02-12T16:27:17.833Z,18.33
2023-02-12T16:29:50.484Z,15.32
2023-02-12T16:32:40.605Z,14.30
2023-02-12T16:35:31.030Z,16.25
2023-02-12T16:38:02.392Z,17.40
2023-02-12T16:40:34.427Z,18.70
2023-02-12T16:43:24.535Z,19.88
2023-02-12T16:46:03.024Z,18.52
2023-02-12T16:48:31.207Z,18.15
2023-02-12T16:50:59.391Z,15.25
2023-02-12T16:53:36.831Z,15.35
2023-02-12T16:56:05.723Z,14.30
2023-02-12T16:58:32.736Z,15.65
2023-02-12T17:01:04.283Z,14.70
2023-02-12T17:03:31.939Z,14.45
2023-02-12T17:05:59.384Z,13.65
2023-02-12T17:08:26.744Z,13.73
2023-02-12T17:10:53.748Z,14.93
2023-02-12T17:13:22.264Z,20.48
2023-02-12T17:15:58.234Z,17.20
2023-02-12T17:18:25.874Z,16.58
2023-02-12T17:21:01.269Z,22.00
2023-02-12T17:23:29.229Z,18.13
2023-02-12T17:25:56.692Z,18.55
2023-02-12T17:28:25.119Z,23.38
2023-02-12T17:30:54.071Z,18.63
2023-02-12T17:33:22.736Z,20.45
2023-02-12T17:35:49.954Z,20.15
2023-02-12T17:38:16.838Z,22.02
2023-02-12T17:40:43.875Z,19.98
2023-02-12T17:43:11.089Z,19.48
2023-02-12T17:45:45.835Z,21.33
2023-02-12T17:48:15.821Z,19.58
2023-02-12T17:50:43.434Z,24.10
2023-02-12T17:53:11.441Z,24.52
2023-02-12T17:55:41.202Z,28.70
2023-02-12T17:58:08.980Z,26.08
2023-02-12T18:00:36.142Z,28.98
2023-02-12T18:03:03.733Z,25.58
2023-02-12T18:05:31.025Z,26.05
2023-02-12T18:07:58.483Z,28.23
2023-02-12T18:10:25.670Z,24.55
2023-02-12T18:12:52.684Z,25.45
2023-02-12T18:15:21.246Z,27.75
2023-02-12T18:17:48.426Z,25.45
2023-02-12T18:20:15.447Z,27.55
2023-02-12T18:22:42.486Z,27.80
2023-02-12T18:25:09.885Z,27.42
2023-02-12T18:27:39.477Z,29.38
2023-02-12T18:30:08.986Z,28.33
2023-02-12T18:32:39.241Z,26.33
2023-02-12T18:35:08.537Z,30.90
2023-02-12T18:37:35.908Z,27.83
2023-02-12T18:40:03.837Z,27.42
2023-02-12T18:42:33.348Z,29.35
2023-02-12T18:45:00.489Z,28.30
2023-02-12T18:47:27.894Z,26.73
2023-02-12T18:49:57.896Z,27.42
2023-02-12T18:52:25.212Z,28.20
2023-02-12T18:54:53.139Z,25.17
2023-02-12T18:57:20.937Z,29.92
2023-02-12T18:59:48.348Z,23.90
2023-02-12T19:02:15.530Z,32.28
2023-02-12T19:04:42.739Z,26.98
2023-02-12T19:07:10.232Z,25.75
2023-02-12T19:09:37.311Z,28.90
2023-02-12T19:12:06.927Z,27.30
2023-02-12T19:14:34.250Z,26.67
2023-02-12T19:17:01.235Z,32.28
2023-02-12T19:19:29.491Z,23.80
2023-02-12T19:21:56.809Z,28.95
2023-02-12T19:24:24.174Z,27.90
2023-02-12T19:26:53.123Z,29.73
2023-02-12T19:29:21.642Z,30.63
2023-02-12T19:31:49.098Z,28.67
2023-02-12T19:34:21.682Z,23.23
2023-02-12T19:36:51.289Z,28.83
2023-02-12T19:39:22.706Z,23.15
2023-02-12T19:41:51.518Z,30.45
2023-02-12T19:44:24.734Z,32.10
2023-02-12T19:46:53.142Z,26.30
2023-02-12T19:49:26.998Z,27.85
2023-02-12T19:51:54.832Z,26.98
2023-02-12T19:54:24.285Z,26.08
2023-02-12T19:56:53.838Z,25.40
2023-02-12T19:59:24.686Z,20.42
2023-02-12T20:01:52.673Z,23.23
2023-02-12T20:04:22.926Z,24.67
2023-02-12T20:06:51.346Z,22.90
2023-02-12T20:09:21.373Z,22.25
2023-02-12T20:11:48.970Z,26.42
2023-02-12T20:14:16.283Z,26.15
2023-02-12T20:16:46.693Z,30.70
2023-02-12T20:19:20.252Z,29.77
2023-02-12T20:21:53.313Z,27.73
2023-02-12T20:24:25.934Z,27.88
2023-02-12T20:26:54.593Z,26.77
2023-02-12T20:29:23.410Z,26.30
2023-02-12T20:31:51.344Z,29.95
2023-02-12T20:34:20.206Z,24.75
2023-02-12T20:36:49.877Z,23.70
2023-02-12T20:39:20.219Z,26.38
2023-02-12T20:41:50.082Z,23.48
2023-02-12T20:44:21.429Z,23.25
2023-02-12T20:46:54.582Z,25.63
2023-02-12T20:49:26.554Z,31.33
2023-02-12T21:27:50.616Z,27.45
2023-02-12T21:30:18.049Z,28.05
2023-02-12T21:32:45.478Z,24.20
2023-02-12T21:35:12.880Z,22.02
2023-02-12T21:37:39.790Z,23.65
2023-02-12T21:40:07.808Z,28.95
2023-02-12T21:42:34.875Z,27.90
2023-02-12T21:45:02.180Z,27.80
2023-02-12T21:47:32.043Z,24.50
2023-02-12T21:49:59.354Z,22.83
2023-02-12T21:52:26.347Z,26.55
2023-02-12T21:54:56.101Z,25.90
2023-02-12T21:57:23.063Z,23.80
2023-02-12T21:59:50.024Z,24.90
2023-02-12T22:02:21.736Z,23.75
2023-02-12T22:04:54.729Z,22.08
2023-02-12T22:07:21.690Z,29.48
2023-02-12T22:09:49.703Z,22.60
2023-02-12T22:12:16.716Z,26.05
2023-02-12T22:14:45.672Z,22.30
2023-02-12T22:17:12.585Z,22.55
2023-02-12T22:19:41.277Z,24.15
2023-02-12T22:22:08.705Z,29.80
2023-02-12T22:24:37.840Z,27.05
2023-02-12T22:27:05.129Z,28.50
2023-02-12T22:29:32.512Z,30.17
2023-02-12T22:31:59.716Z,31.20
2023-02-12T22:34:26.853Z,27.58
2023-02-12T22:36:53.820Z,26.08
2023-02-12T22:39:21.338Z,27.45
2023-02-12T22:41:48.497Z,25.70
2023-02-12T22:44:18.914Z,27.65
2023-02-12T22:46:48.658Z,24.33
2023-02-12T22:49:16.691Z,24.75
2023-02-12T22:51:43.626Z,23.52
2023-02-12T22:54:15.945Z,28.48
2023-02-12T22:56:44.343Z,26.30
2023-02-12T22:59:13.155Z,29.08
2023-02-12T23:01:41.530Z,25.73
2023-02-12T23:04:18.217Z,24.35
2023-02-12T23:06:46.151Z,27.45
2023-02-12T23:09:17.718Z,22.65
2023-02-12T23:11:45.339Z,26.15
2023-02-12T23:14:12.592Z,26.30
2023-02-12T23:16:39.612Z,21.27
2023-02-12T23:19:06.674Z,26.67
2023-02-12T23:21:34.265Z,26.80
2023-02-12T23:24:01.329Z,25.85
2023-02-12T23:26:30.057Z,26.25
2023-02-12T23:28:57.765Z,25.83
2023-02-12T23:31:25.497Z,27.77
2023-02-12T23:33:52.527Z,27.20
2023-02-12T23:36:19.617Z,27.85
2023-02-12T23:38:47.696Z,25.23
2023-02-12T23:41:14.612Z,26.25
2023-02-12T23:43:41.619Z,26.23
2023-02-12T23:46:09.324Z,28.13
2023-02-12T23:48:36.522Z,30.92
2023-02-12T23:51:04.085Z,29.92
2023-02-12T23:53:30.979Z,25.58
2023-02-12T23:55:57.941Z,28.20
2023-02-12T23:58:25.154Z,26.45
